ADDS METAR Data INFO
IDs: Format: Raw Decoded Include TAF

Data at: 0509 UTC 18 Feb 2018

KVNC 180455Z AUTO 32003KT 10SM CLR 21/19 A3021 RMK AO2
KVNC 180435Z AUTO 32004KT 10SM CLR 21/18 A3021 RMK AO2
KVNC 180415Z AUTO 31003KT 10SM CLR 20/18 A3021 RMK AO2
KVNC 180355Z AUTO 32004KT 10SM CLR 21/19 A3022 RMK AO2
KVNC 180335Z AUTO 31004KT 10SM CLR 21/19 A3022 RMK AO2
KVNC 180315Z AUTO 32004KT 10SM CLR 20/19 A3023 RMK AO2
KVNC 180255Z AUTO 00000KT 10SM CLR 19/18 A3023 RMK AO2
KVNC 180235Z AUTO 00000KT 10SM CLR 19/17 A3023 RMK AO2
KVNC 180215Z AUTO 00000KT 10SM CLR 20/18 A3023 RMK AO2
KVNC 180155Z AUTO 00000KT 10SM CLR 21/18 A3023 RMK AO2
KVNC 180135Z AUTO 31004KT 10SM CLR 21/18 A3023 RMK AO2
KVNC 180115Z AUTO 31004KT 10SM CLR 21/18 A3023 RMK AO2
KVNC 180055Z AUTO 31004KT 10SM CLR 21/18 A3023 RMK AO2
KVNC 180035Z AUTO 31004KT 10SM CLR 21/17 A3023 RMK AO2
KVNC 180015Z AUTO 30005KT 10SM CLR 21/17 A3022 RMK AO2
KVNC 172355Z AUTO 30005KT 10SM CLR 22/17 A3022 RMK AO2
KVNC 172335Z AUTO 30004KT 10SM CLR 22/17 A3022 RMK AO2
KVNC 172315Z AUTO 30005KT 10SM CLR 23/18 A3022 RMK AO2
KVNC 172255Z AUTO 29004KT 10SM CLR 23/17 A3021 RMK AO2
KVNC 172235Z AUTO 29006KT 10SM CLR 24/17 A3021 RMK AO2
KVNC 172215Z AUTO 28005KT 10SM CLR 24/17 A3020 RMK AO2
KVNC 172155Z AUTO 23004KT 10SM CLR 25/17 A3019 RMK AO2
KVNC 172135Z AUTO 23005KT 10SM CLR 25/17 A3018 RMK AO2
KVNC 172115Z AUTO 23006KT 10SM CLR 25/17 A3018 RMK AO2
KVNC 172055Z AUTO 23006KT 10SM CLR 25/17 A3017 RMK AO2
KVNC 172035Z AUTO 21006KT 10SM CLR 25/17 A3017 RMK AO2
KVNC 172015Z AUTO 21006KT 10SM CLR 25/17 A3017 RMK AO2
KVNC 171955Z AUTO 22007KT 10SM CLR 25/18 A3017 RMK AO2
KVNC 171935Z AUTO 24006KT 10SM CLR 25/18 A3018 RMK AO2
KVNC 171915Z AUTO 23006KT 10SM CLR 25/18 A3018 RMK AO2
KVNC 171855Z AUTO 22007KT 10SM CLR 25/19 A3018 RMK AO2
KVNC 171835Z AUTO 23007KT 10SM CLR 25/19 A3019 RMK AO2
KVNC 171815Z AUTO 21009KT 10SM CLR 25/19 A3019 RMK AO2
KVNC 171755Z AUTO 21009KT 9SM CLR 26/18 A3020 RMK AO2
KVNC 171735Z AUTO 21008KT 10SM CLR 26/18 A3020 RMK AO2
KVNC 171715Z AUTO 21008KT 10SM CLR 26/18 A3021 RMK AO2
KVNC 171655Z AUTO 22007KT 10SM CLR 25/19 A3022 RMK AO2
KVNC 171635Z AUTO 21007KT 10SM CLR 25/20 A3022 RMK AO2
KVNC 171615Z AUTO 22007KT 10SM CLR 25/20 A3023 RMK AO2
KVNC 171555Z AUTO 21007KT 10SM CLR 25/19 A3023 RMK AO2
KVNC 171535Z AUTO 20006KT 10SM CLR 24/19 A3023 RMK AO2
KVNC 171515Z AUTO 20005KT 10SM CLR 24/19 A3023 RMK AO2
KVNC 171455Z AUTO 19006KT 10SM CLR 24/20 A3023 RMK AO2
KVNC 171435Z AUTO 17007KT 10SM CLR 23/20 A3023 RMK AO2
KVNC 171415Z AUTO 15004KT 10SM CLR 22/20 A3023 RMK AO2
KVNC 171355Z AUTO 17004KT 10SM CLR 21/21 A3022 RMK AO2
KVNC 171335Z AUTO 16005KT 10SM CLR 20/20 A3022 RMK AO2
KVNC 171315Z AUTO 14005KT 9SM CLR 19/19 A3021 RMK AO2
KVNC 171255Z AUTO 00000KT 6SM BR CLR 17/17 A3021 RMK AO2
KVNC 171235Z AUTO 00000KT 1/4SM FG VV002 17/17 A3021 RMK AO2
KVNC 171215Z AUTO 15003KT 1/4SM FG VV002 16/16 A3020 RMK AO2 VIS M1/4V5
KVNC 171155Z AUTO 00000KT 1/2SM FG VV005 16/16 A3019 RMK AO2
KVNC 171135Z AUTO 11003KT 1/4SM FG VV002 17/17 A3018 RMK AO2
KVNC 171115Z AUTO 00000KT M1/4SM FG VV000 17/17 A3018 RMK AO2
KVNC 171055Z AUTO 00000KT 1/4SM FG VV002 16/16 A3018 RMK AO2
KVNC 171035Z AUTO 13004KT 1/4SM FG BKN002 16/16 A3018 RMK AO2
KVNC 171015Z AUTO 11003KT 1/4SM FG BKN001 16/16 A3018 RMK AO2
KVNC 170955Z AUTO 08004KT M1/4SM FG OVC001 17/17 A3017 RMK AO2
KVNC 170935Z AUTO 04004KT 1/2SM BR OVC001 17/17 A3017 RMK AO2
KVNC 170915Z AUTO 04004KT 8SM CLR 17/17 A3017 RMK AO2
KVNC 170855Z AUTO 08003KT M1/4SM FG BKN007 16/16 A3016 RMK AO2
KVNC 170835Z AUTO 00000KT 1/4SM FG OVC007 18/18 A3016 RMK AO2
KVNC 170815Z AUTO 00000KT M1/4SM FG OVC006 18/18 A3016 RMK AO2
KVNC 170755Z AUTO 00000KT M1/4SM FG OVC005 17/17 A3017 RMK AO2
KVNC 170735Z AUTO 17004KT M1/4SM FG VV000 17/17 A3017 RMK AO2
KVNC 170715Z AUTO 16004KT M1/4SM FG VV000 17/17 RMK AO2 VIS M1/4V5
KVNC 170655Z AUTO 00000KT 1/2SM FG VV005 17/17 A3018 RMK AO2
KVNC 170635Z AUTO 16005KT 6SM BR CLR 17/17 A3018 RMK AO2
KVNC 170615Z AUTO 15003KT 1/4SM FG VV002 18/18 A3019 RMK AO2
KVNC 170555Z AUTO 05003KT 8SM CLR 18/18 A3019 RMK AO2
KVNC 170535Z AUTO 05003KT 2SM BR CLR 18/18 A3019 RMK AO2
KVNC 170515Z AUTO 00000KT 3/4SM BR VV005 18/18 A3019 RMK AO2
KVNC 170455Z AUTO 00000KT 10SM CLR 19/19 A3019 RMK AO2
KVNC 170435Z AUTO 33006KT 10SM CLR 20/20 A3019 RMK AO2
KVNC 170415Z AUTO 00000KT 10SM CLR 19/19 A3020 RMK AO2
KVNC 170355Z AUTO 00000KT 10SM CLR 19/19 A3020 RMK AO2
KVNC 170335Z AUTO 00000KT 10SM CLR 19/19 A3021 RMK AO2
KVNC 170315Z AUTO 00000KT 10SM CLR 19/19 A3021 RMK AO2
KVNC 170255Z AUTO 00000KT 10SM CLR 19/19 A3021 RMK AO2
KVNC 170235Z AUTO 00000KT 8SM CLR 19/19 A3020 RMK AO2
KVNC 170215Z AUTO 13004KT 8SM CLR 19/19 A3020 RMK AO2
KVNC 170155Z AUTO 13003KT 10SM CLR 19/19 A3020 RMK AO2
KVNC 170135Z AUTO 00000KT 9SM CLR 20/20 A3020 RMK AO2
KVNC 170115Z AUTO 00000KT 10SM CLR 20/19 A3020 RMK AO2
KVNC 170055Z AUTO 00000KT 10SM CLR 20/19 A3020 RMK AO2
KVNC 170035Z AUTO 00000KT 10SM CLR 21/20 A3020 RMK AO2
KVNC 170015Z AUTO 00000KT 10SM CLR 21/20 A3020 RMK AO2
KVNC 162355Z AUTO 00000KT 10SM CLR 21/20 A3020 RMK AO2
KVNC 162335Z AUTO 00000KT 10SM CLR 22/20 A3019 RMK AO2
KVNC 162315Z AUTO 31003KT 10SM CLR 22/20 A3019 RMK AO2
KVNC 162255Z AUTO 30005KT 10SM CLR 23/20 A3019 RMK AO2
KVNC 162235Z AUTO 28004KT 10SM CLR 23/20 A3019 RMK AO2
KVNC 162215Z AUTO 29005KT 10SM CLR 24/20 A3019 RMK AO2
KVNC 162155Z AUTO 29005KT 10SM CLR 24/20 A3019 RMK AO2
KVNC 162135Z AUTO 27005KT 10SM CLR 24/20 A3019 RMK AO2
KVNC 162115Z AUTO 26006KT 10SM CLR 24/20 A3019 RMK AO2
KVNC 162055Z AUTO 27006KT 10SM CLR 24/20 A3019 RMK AO2
KVNC 162035Z AUTO 24007KT 10SM CLR 24/20 A3019 RMK AO2
KVNC 162015Z AUTO 25007KT 10SM CLR 25/20 A3019 RMK AO2
KVNC 161955Z AUTO 23007KT 10SM CLR 25/20 A3019 RMK AO2
KVNC 161935Z AUTO 25007KT 10SM CLR 25/20 A3019 RMK AO2
KVNC 161915Z AUTO 25007KT 10SM CLR 25/20 A3019 RMK AO2
KVNC 161855Z AUTO 23006KT 10SM CLR 25/19 A3019 RMK AO2
KVNC 161835Z AUTO 22007KT 10SM CLR 25/19 A3020 RMK AO2
KVNC 161815Z AUTO 22006KT 10SM CLR 25/19 A3020 RMK AO2
KVNC 161755Z AUTO 22007KT 10SM CLR 25/19 A3021 RMK AO2
KVNC 161735Z AUTO 20007KT 10SM CLR 25/18 A3022 RMK AO2
KVNC 161715Z AUTO 20007KT 10SM CLR 25/18 A3023 RMK AO2